createdAt,value
2022-09-28T00:01:21.913Z,12.20
2022-09-28T00:03:52.023Z,12.20
2022-09-28T00:06:22.556Z,12.20
2022-09-28T00:08:50.057Z,12.30
2022-09-28T00:11:18.786Z,12.30
2022-09-28T00:13:49.454Z,12.30
2022-09-28T00:16:19.619Z,12.30
2022-09-28T00:18:46.925Z,12.40
2022-09-28T00:21:17.951Z,12.40
2022-09-28T00:24:04.270Z,12.40
2022-09-28T00:26:33.953Z,12.40
2022-09-28T00:29:02.418Z,12.40
2022-09-28T00:31:32.906Z,12.40
2022-09-28T00:34:01.939Z,12.50
2022-09-28T00:36:31.768Z,12.50
2022-09-28T00:39:04.627Z,12.50
2022-09-28T00:41:31.804Z,12.50
2022-09-28T00:44:26.639Z,12.50
2022-09-28T00:47:25.815Z,12.50
2022-09-28T00:50:07.109Z,12.50
2022-09-28T00:52:40.713Z,12.50
2022-09-28T00:55:13.969Z,12.50
2022-09-28T00:57:46.940Z,12.50
2022-09-28T01:00:14.321Z,12.50
2022-09-28T01:02:41.887Z,12.60
2022-09-28T01:05:10.424Z,12.60
2022-09-28T01:07:38.140Z,12.60
2022-09-28T01:10:05.886Z,12.60
2022-09-28T01:12:32.973Z,12.60
2022-09-28T01:15:00.516Z,12.60
2022-09-28T01:17:46.001Z,12.60
2022-09-28T01:20:33.740Z,12.60
2022-09-28T01:23:30.248Z,12.60
2022-09-28T01:26:25.183Z,12.70
2022-09-28T01:29:05.743Z,12.70
2022-09-28T01:31:36.537Z,12.70
2022-09-28T01:34:16.203Z,12.70
2022-09-28T01:36:53.473Z,12.70
2022-09-28T01:39:33.949Z,12.70
2022-09-28T01:42:11.076Z,12.70
2022-09-28T01:44:44.111Z,12.80
2022-09-28T01:47:14.441Z,12.80
2022-09-28T01:49:50.877Z,12.80
2022-09-28T01:52:35.453Z,12.80
2022-09-28T01:55:44.805Z,12.80
2022-09-28T01:58:25.557Z,12.80
2022-09-28T02:01:01.323Z,12.80
2022-09-28T02:03:49.203Z,12.80
2022-09-28T02:06:26.569Z,12.80
2022-09-28T02:09:04.449Z,12.80
2022-09-28T02:11:45.321Z,12.80
2022-09-28T02:14:16.251Z,12.80
2022-09-28T02:16:51.040Z,12.80
2022-09-28T02:19:27.917Z,12.80
2022-09-28T02:22:08.777Z,12.80
2022-09-28T02:25:07.925Z,12.80
2022-09-28T02:28:06.561Z,12.80
2022-09-28T02:30:36.785Z,12.80
2022-09-28T02:33:13.145Z,12.80
2022-09-28T02:35:42.805Z,12.80
2022-09-28T02:38:14.807Z,12.80
2022-09-28T02:40:46.918Z,12.80
2022-09-28T02:43:31.805Z,12.80
2022-09-28T02:46:26.701Z,12.80
2022-09-28T02:49:36.148Z,12.80
2022-09-28T02:52:24.917Z,12.80
2022-09-28T02:55:19.775Z,12.80
2022-09-28T02:57:56.281Z,12.70
2022-09-28T03:00:24.267Z,12.70
2022-09-28T03:03:12.487Z,12.70
2022-09-28T03:06:02.093Z,12.70
2022-09-28T03:08:53.281Z,12.70
2022-09-28T03:11:28.371Z,12.70
2022-09-28T03:13:56.396Z,12.60
2022-09-28T03:16:32.140Z,12.60
2022-09-28T03:19:04.422Z,12.60
2022-09-28T03:21:31.456Z,12.60
2022-09-28T03:23:58.318Z,12.50
2022-09-28T03:26:25.749Z,12.50
2022-09-28T03:28:53.446Z,12.50
2022-09-28T03:31:23.838Z,12.50
2022-09-28T03:33:51.852Z,12.40
2022-09-28T03:36:18.857Z,12.40
2022-09-28T03:38:45.982Z,12.40
2022-09-28T03:41:13.104Z,12.40
2022-09-28T03:43:42.436Z,12.30
2022-09-28T03:46:10.168Z,12.30
2022-09-28T03:48:42.368Z,12.30
2022-09-28T03:51:11.974Z,12.30
2022-09-28T03:53:40.162Z,12.30
2022-09-28T03:56:17.475Z,12.20
2022-09-28T03:58:44.421Z,12.20
2022-09-28T04:01:17.549Z,12.20
2022-09-28T04:03:47.708Z,12.20
2022-09-28T04:06:15.406Z,12.20
2022-09-28T04:08:43.248Z,12.20
2022-09-28T04:11:10.638Z,12.20
2022-09-28T04:13:37.541Z,12.20
2022-09-28T04:16:09.605Z,12.20
2022-09-28T04:18:36.742Z,12.20
2022-09-28T04:21:13.663Z,12.20
2022-09-28T04:23:44.670Z,12.10
2022-09-28T04:26:30.501Z,12.10
2022-09-28T04:29:15.682Z,12.10
2022-09-28T04:31:52.297Z,12.10
2022-09-28T04:34:22.906Z,12.10
2022-09-28T04:36:50.422Z,12.10
2022-09-28T04:39:19.351Z,12.10
2022-09-28T04:41:52.627Z,12.00
2022-09-28T04:44:20.264Z,12.10
2022-09-28T04:46:49.242Z,12.10
2022-09-28T04:49:39.216Z,12.10
2022-09-28T04:52:18.712Z,12.10
2022-09-28T04:54:48.996Z,12.10
2022-09-28T04:57:17.521Z,12.20
2022-09-28T04:59:44.850Z,12.20
2022-09-28T05:02:14.036Z,12.20
2022-09-28T05:04:59.986Z,12.20
2022-09-28T05:07:46.206Z,12.30
2022-09-28T05:10:13.383Z,12.50
2022-09-28T05:12:40.833Z,12.30
2022-09-28T05:15:08.121Z,12.30
2022-09-28T05:17:35.065Z,12.40
2022-09-28T05:20:25.938Z,12.20
2022-09-28T05:22:53.394Z,12.40
2022-09-28T05:25:20.197Z,12.40
2022-09-28T05:27:57.275Z,12.40
2022-09-28T05:30:50.197Z,12.40
2022-09-28T05:33:25.111Z,12.40
2022-09-28T05:36:11.017Z,12.50
2022-09-28T05:38:38.337Z,12.40
2022-09-28T05:41:06.694Z,12.50
2022-09-28T05:43:34.141Z,12.50
2022-09-28T05:46:04.614Z,12.50
2022-09-28T05:48:32.133Z,12.50
2022-09-28T05:50:59.590Z,12.50
2022-09-28T05:53:27.135Z,12.60
2022-09-28T05:56:01.279Z,12.60
2022-09-28T06:01:24.453Z,12.70
2022-09-28T06:03:51.482Z,12.70
2022-09-28T06:06:19.152Z,12.70
2022-09-28T06:08:48.497Z,12.70
2022-09-28T06:11:32.308Z,12.70
2022-09-28T06:14:05.097Z,12.70
2022-09-28T06:16:33.179Z,12.60
2022-09-28T06:19:18.830Z,12.80
2022-09-28T06:22:04.085Z,12.80
2022-09-28T06:24:42.824Z,12.80
2022-09-28T06:27:11.402Z,13.00
2022-09-28T06:29:43.259Z,12.90
2022-09-28T06:32:12.710Z,13.00
2022-09-28T06:34:42.044Z,13.00
2022-09-28T06:37:09.479Z,13.10
2022-09-28T06:39:37.182Z,13.20
2022-09-28T06:42:05.877Z,13.30
2022-09-28T06:44:51.996Z,13.40
2022-09-28T06:47:43.603Z,13.50
2022-09-28T06:50:17.135Z,13.60
2022-09-28T06:53:11.058Z,13.70
2022-09-28T06:56:04.871Z,13.90
2022-09-28T06:58:32.252Z,14.10
2022-09-28T07:01:00.400Z,14.30
2022-09-28T07:03:29.677Z,14.40
2022-09-28T07:06:21.177Z,14.60
2022-09-28T07:09:30.255Z,14.90
2022-09-28T07:12:13.738Z,15.20
2022-09-28T07:14:56.307Z,15.80
2022-09-28T07:17:25.534Z,15.80
2022-09-28T07:19:54.110Z,16.10
2022-09-28T07:22:36.980Z,16.40
2022-09-28T07:25:09.771Z,16.70
2022-09-28T07:27:42.906Z,17.00
2022-09-28T07:30:34.942Z,17.40
2022-09-28T07:33:08.124Z,17.70
2022-09-28T07:36:09.511Z,18.20
2022-09-28T07:38:38.386Z,18.60
2022-09-28T07:41:33.312Z,19.00
2022-09-28T07:44:10.608Z,19.50
2022-09-28T07:46:39.401Z,19.70
2022-09-28T07:49:24.689Z,20.40
2022-09-28T07:52:35.184Z,20.70
2022-09-28T07:55:19.612Z,21.10
2022-09-28T07:58:05.297Z,21.30
2022-09-28T08:00:50.868Z,21.40
2022-09-28T08:03:24.867Z,21.50
2022-09-28T08:06:05.187Z,21.60
2022-09-28T08:09:55.751Z,21.80
2022-09-28T08:12:01.513Z,22.00
2022-09-28T08:14:42.982Z,22.30
2022-09-28T08:17:57.908Z,22.40
2022-09-28T08:21:04.876Z,22.70
2022-09-28T08:23:37.358Z,23.00
2022-09-28T08:28:58.558Z,23.40
2022-09-28T08:32:01.258Z,23.50
2022-09-28T08:34:53.591Z,23.60
2022-09-28T08:37:37.596Z,23.70
2022-09-28T08:41:08.475Z,23.70
2022-09-28T08:44:16.274Z,23.70
2022-09-28T08:47:46.661Z,23.70
2022-09-28T08:50:29.429Z,23.90
2022-09-28T08:54:05.804Z,23.90
2022-09-28T08:56:55.852Z,23.80
2022-09-28T08:59:59.757Z,23.80
2022-09-28T09:02:34.307Z,23.70
2022-09-28T09:06:04.596Z,23.40
2022-09-28T09:09:50.857Z,23.20
2022-09-28T09:12:37.474Z,22.90
2022-09-28T09:15:21.540Z,22.50
2022-09-28T09:18:20.058Z,22.30
2022-09-28T09:22:29.472Z,22.00
2022-09-28T09:25:19.357Z,21.60
2022-09-28T09:28:43.881Z,21.30
2022-09-28T09:31:50.219Z,21.00
2022-09-28T09:34:46.625Z,20.70
2022-09-28T09:38:11.146Z,20.50
2022-09-28T09:41:24.381Z,20.30
2022-09-28T09:44:44.925Z,20.20
2022-09-28T09:47:41.114Z,20.20
2022-09-28T09:50:30.518Z,20.40
2022-09-28T09:53:37.665Z,20.50
2022-09-28T09:56:28.134Z,20.90
2022-09-28T09:59:24.062Z,21.60
2022-09-28T10:02:23.854Z,22.30
2022-09-28T10:05:24.504Z,23.20
2022-09-28T10:11:18.682Z,25.10
2022-09-28T10:13:50.543Z,26.20
2022-09-28T10:16:37.277Z,26.70
2022-09-28T10:19:13.221Z,27.40
2022-09-28T10:22:02.545Z,27.90
2022-09-28T10:24:45.964Z,28.20
2022-09-28T10:27:20.515Z,28.20
2022-09-28T10:30:24.761Z,28.10
2022-09-28T10:32:55.472Z,28.00
2022-09-28T10:35:30.933Z,28.00
2022-09-28T10:38:18.427Z,28.10
2022-09-28T10:40:59.195Z,28.00
2022-09-28T10:44:06.846Z,28.00
2022-09-28T10:46:42.153Z,27.90
2022-09-28T10:49:18.197Z,28.00
2022-09-28T10:52:38.009Z,28.10
2022-09-28T10:55:32.987Z,28.00
2022-09-28T10:58:01.031Z,27.90
2022-09-28T11:00:42.298Z,27.60
2022-09-28T11:03:26.568Z,27.70
2022-09-28T11:06:05.749Z,27.40
2022-09-28T11:08:42.812Z,27.20
2022-09-28T11:11:16.718Z,26.90
2022-09-28T11:13:57.389Z,26.50
2022-09-28T11:16:34.960Z,26.00
2022-09-28T11:19:29.740Z,25.60
2022-09-28T11:21:56.635Z,25.20
2022-09-28T11:24:34.178Z,24.80
2022-09-28T11:27:04.209Z,24.40
2022-09-28T11:29:44.214Z,24.00
2022-09-28T11:32:41.331Z,23.70
2022-09-28T11:35:50.416Z,23.30
2022-09-28T11:38:56.192Z,23.20
2022-09-28T11:42:40.499Z,23.00
2022-09-28T11:45:34.486Z,23.00
2022-09-28T11:48:05.964Z,23.10
2022-09-28T11:50:47.446Z,23.20
2022-09-28T11:53:30.852Z,23.30
2022-09-28T11:56:19.224Z,23.10
2022-09-28T11:58:53.934Z,23.10
2022-09-28T12:01:43.908Z,23.10
2022-09-28T12:04:33.885Z,23.10
2022-09-28T12:07:08.357Z,23.10
2022-09-28T12:10:00.646Z,23.20
2022-09-28T12:12:36.032Z,23.40
2022-09-28T12:15:28.007Z,23.60
2022-09-28T12:18:06.487Z,24.00
2022-09-28T12:20:42.785Z,24.30
2022-09-28T12:23:29.960Z,24.60
2022-09-28T12:26:02.981Z,24.70
2022-09-28T12:28:48.891Z,24.70
2022-09-28T12:31:38.277Z,24.50
2022-09-28T12:34:05.718Z,24.30
2022-09-28T12:36:58.159Z,24.00
2022-09-28T12:40:08.311Z,23.50
2022-09-28T12:42:52.785Z,23.10
2022-09-28T12:45:53.099Z,22.70
2022-09-28T12:49:47.348Z,22.30
2022-09-28T12:51:55.221Z,21.90
2022-09-28T12:54:34.312Z,21.50
2022-09-28T12:58:08.401Z,21.20
2022-09-28T13:00:48.281Z,20.80
2022-09-28T13:04:12.831Z,20.50
2022-09-28T13:07:05.805Z,20.20
2022-09-28T13:10:18.601Z,19.90
2022-09-28T13:13:06.343Z,19.70
2022-09-28T13:16:02.446Z,19.50
2022-09-28T13:19:05.622Z,19.30
2022-09-28T13:22:15.754Z,19.10
2022-09-28T13:24:44.966Z,19.00
2022-09-28T13:27:26.335Z,18.90
2022-09-28T13:29:55.709Z,18.70
2022-09-28T13:32:27.080Z,18.60
2022-09-28T13:34:54.785Z,18.50
2022-09-28T13:37:25.567Z,18.40
2022-09-28T13:39:59.643Z,18.40
2022-09-28T13:42:51.238Z,18.40
2022-09-28T13:45:20.689Z,18.30
2022-09-28T13:48:13.580Z,18.30
2022-09-28T13:51:29.793Z,18.30
2022-09-28T13:54:12.910Z,18.40
2022-09-28T13:56:51.326Z,18.50
2022-09-28T13:59:29.803Z,18.60
2022-09-28T14:01:59.825Z,18.60
2022-09-28T14:05:01.961Z,18.70
2022-09-28T14:07:35.035Z,18.80
2022-09-28T14:10:10.791Z,18.80
2022-09-28T14:12:37.619Z,18.90
2022-09-28T14:15:30.494Z,19.00
2022-09-28T14:18:33.663Z,19.10
2022-09-28T14:21:12.771Z,19.40
2022-09-28T14:23:58.986Z,19.90
2022-09-28T14:27:09.723Z,20.00
2022-09-28T14:29:38.372Z,20.30
2022-09-28T14:32:23.543Z,20.60
2022-09-28T14:38:18.751Z,21.10
2022-09-28T14:41:09.941Z,21.30
2022-09-28T14:43:45.926Z,21.50
2022-09-28T14:46:22.006Z,21.60
2022-09-28T14:48:55.058Z,21.60
2022-09-28T14:51:31.596Z,21.50
2022-09-28T14:54:26.986Z,21.40
2022-09-28T14:56:54.181Z,21.40
2022-09-28T14:59:36.322Z,21.40
2022-09-28T15:02:15.404Z,21.60
2022-09-28T15:05:22.651Z,21.80
2022-09-28T15:07:52.875Z,22.00
2022-09-28T15:10:39.094Z,22.10
2022-09-28T15:13:27.890Z,22.10
2022-09-28T15:16:06.581Z,22.20
2022-09-28T15:19:04.734Z,22.30
2022-09-28T15:21:38.995Z,22.30
2022-09-28T15:24:55.236Z,22.30
2022-09-28T15:27:24.617Z,22.00
2022-09-28T15:30:11.471Z,21.90
2022-09-28T15:32:38.441Z,21.80
2022-09-28T15:35:40.998Z,21.40
2022-09-28T15:38:17.189Z,21.10
2022-09-28T15:40:44.834Z,21.00
2022-09-28T15:43:27.101Z,20.70
2022-09-28T15:46:18.766Z,20.60
2022-09-28T15:48:55.420Z,20.20
2022-09-28T15:51:24.077Z,19.90
2022-09-28T15:54:04.602Z,19.60
2022-09-28T15:56:31.701Z,19.30
2022-09-28T15:59:32.893Z,19.40
2022-09-28T16:02:18.950Z,18.80
2022-09-28T16:04:53.018Z,18.60
2022-09-28T16:07:45.709Z,18.40
2022-09-28T16:10:12.449Z,18.00
2022-09-28T16:12:58.764Z,17.80
2022-09-28T16:15:36.800Z,17.60
2022-09-28T16:18:18.029Z,17.30
2022-09-28T16:20:50.024Z,17.00
2022-09-28T16:23:45.171Z,17.00
2022-09-28T16:26:37.490Z,16.40
2022-09-28T16:29:34.218Z,15.90
2022-09-28T16:32:56.520Z,15.90
2022-09-28T16:35:36.097Z,15.70
2022-09-28T16:38:11.067Z,15.50
2022-09-28T16:40:44.160Z,15.30
2022-09-28T16:43:26.882Z,15.20
2022-09-28T16:46:00.991Z,15.00
2022-09-28T16:48:30.994Z,15.00
2022-09-28T16:50:58.535Z,14.80
2022-09-28T16:53:44.869Z,14.70
2022-09-28T16:56:13.060Z,14.60
2022-09-28T16:58:40.252Z,14.60
2022-09-28T17:01:09.527Z,14.50
2022-09-28T17:03:36.875Z,14.40
2022-09-28T17:06:08.395Z,14.30
2022-09-28T17:08:35.663Z,14.30
2022-09-28T17:11:14.935Z,14.20
2022-09-28T17:13:45.134Z,14.20
2022-09-28T17:16:32.563Z,14.20
2022-09-28T17:19:29.814Z,14.10
2022-09-28T17:21:56.730Z,14.10
2022-09-28T17:24:23.619Z,14.00
2022-09-28T17:26:52.085Z,14.00
2022-09-28T17:29:19.544Z,14.00
2022-09-28T17:31:47.551Z,13.80
2022-09-28T17:34:16.306Z,13.90
2022-09-28T17:36:45.190Z,14.20
2022-09-28T17:39:21.937Z,13.90
2022-09-28T17:41:52.479Z,13.90
2022-09-28T17:44:20.663Z,13.90
2022-09-28T17:46:49.815Z,13.80
2022-09-28T17:49:17.269Z,13.80
2022-09-28T17:51:44.319Z,13.80
2022-09-28T17:54:12.967Z,13.80
2022-09-28T17:56:40.085Z,13.80
2022-09-28T17:59:11.389Z,13.80
2022-09-28T18:01:40.054Z,13.70
2022-09-28T18:04:13.198Z,13.70
2022-09-28T18:06:46.081Z,13.70
2022-09-28T18:09:15.323Z,13.70
2022-09-28T18:11:45.403Z,13.70
2022-09-28T18:14:12.817Z,13.60
2022-09-28T18:16:39.744Z,13.60
2022-09-28T18:19:07.054Z,13.70
2022-09-28T18:21:35.338Z,13.60
2022-09-28T18:24:03.948Z,13.60
2022-09-28T18:26:30.812Z,13.60
2022-09-28T18:28:57.952Z,13.50
2022-09-28T18:31:24.925Z,13.50
2022-09-28T18:34:02.003Z,13.50
2022-09-28T18:36:35.606Z,13.50
2022-09-28T18:39:03.896Z,13.50
2022-09-28T18:41:30.940Z,13.50
2022-09-28T18:44:00.770Z,13.40
2022-09-28T18:46:29.676Z,13.40
2022-09-28T18:48:57.054Z,13.40
2022-09-28T18:51:24.312Z,13.40
2022-09-28T18:53:51.717Z,13.40
2022-09-28T18:56:19.659Z,13.30
2022-09-28T18:58:52.641Z,13.40
2022-09-28T19:01:30.389Z,13.30
2022-09-28T19:04:06.826Z,13.30
2022-09-28T19:06:35.194Z,13.30
2022-09-28T19:09:02.542Z,13.30
2022-09-28T19:11:29.571Z,13.20
2022-09-28T19:13:56.745Z,13.50
2022-09-28T19:16:28.512Z,13.20
2022-09-28T19:19:01.476Z,13.20
2022-09-28T19:21:29.241Z,13.10
2022-09-28T19:23:56.063Z,13.10
2022-09-28T19:26:28.380Z,13.10
2022-09-28T19:28:59.301Z,13.10
2022-09-28T19:31:27.272Z,13.00
2022-09-28T19:33:54.137Z,13.00
2022-09-28T19:36:23.883Z,13.00
2022-09-28T19:38:53.058Z,13.00
2022-09-28T19:41:43.925Z,12.90
2022-09-28T19:44:16.749Z,13.30
2022-09-28T19:46:43.977Z,12.90
2022-09-28T19:49:14.815Z,12.90
2022-09-28T19:51:51.663Z,12.80
2022-09-28T19:54:35.676Z,12.80
2022-09-28T19:57:07.886Z,12.80
2022-09-28T19:59:38.841Z,12.80
2022-09-28T20:02:08.374Z,12.70
2022-09-28T20:04:37.795Z,12.70
2022-09-28T20:07:05.121Z,12.80
2022-09-28T20:09:32.917Z,12.60
2022-09-28T20:11:59.859Z,12.50
2022-09-28T20:14:32.046Z,12.50
2022-09-28T20:17:03.757Z,12.40
2022-09-28T20:19:30.749Z,12.40
2022-09-28T20:21:59.525Z,12.40
2022-09-28T20:24:28.661Z,12.40
2022-09-28T20:26:56.037Z,12.30
2022-09-28T20:29:24.212Z,12.30
2022-09-28T20:31:51.944Z,12.40
2022-09-28T20:34:19.360Z,12.20
2022-09-28T20:36:46.296Z,12.20
2022-09-28T20:39:13.479Z,12.10
2022-09-28T20:41:41.097Z,12.10
2022-09-28T20:44:09.032Z,12.00
2022-09-28T20:46:36.774Z,12.00
2022-09-28T20:49:04.978Z,12.00
2022-09-28T20:51:32.321Z,12.00
2022-09-28T20:53:59.688Z,12.00
2022-09-28T20:56:30.549Z,12.00
2022-09-28T20:58:57.681Z,12.00
2022-09-28T21:01:27.934Z,12.00
2022-09-28T21:03:59.558Z,12.00
2022-09-28T21:06:38.299Z,12.10
2022-09-28T21:09:07.728Z,12.10
2022-09-28T21:11:35.612Z,12.10
2022-09-28T21:14:06.253Z,12.20
2022-09-28T21:16:34.872Z,12.20
2022-09-28T21:19:02.161Z,12.40
2022-09-28T21:21:29.041Z,12.20
2022-09-28T21:23:57.631Z,12.30
2022-09-28T21:26:28.800Z,12.30
2022-09-28T21:29:02.423Z,12.30
2022-09-28T21:31:33.313Z,12.40
2022-09-28T21:34:00.749Z,12.40
2022-09-28T21:36:28.026Z,12.40
2022-09-28T21:38:55.467Z,12.40
2022-09-28T21:41:23.673Z,12.40
2022-09-28T21:43:50.766Z,12.40
2022-09-28T21:46:17.787Z,12.40
2022-09-28T21:48:45.509Z,12.50
2022-09-28T21:51:15.996Z,12.40
2022-09-28T21:53:44.448Z,12.50
2022-09-28T21:56:12.849Z,12.50
2022-09-28T21:58:40.698Z,12.50
2022-09-28T22:01:15.630Z,12.50
2022-09-28T22:03:46.662Z,12.50
2022-09-28T22:06:15.296Z,12.50
2022-09-28T22:08:42.297Z,12.50
2022-09-28T22:11:13.499Z,12.50
2022-09-28T22:13:48.121Z,12.50
2022-09-28T22:16:18.269Z,12.60
2022-09-28T22:18:46.096Z,12.50
2022-09-28T22:21:15.287Z,12.60
2022-09-28T22:23:42.891Z,12.60
2022-09-28T22:26:25.673Z,12.60
2022-09-28T22:28:58.805Z,12.60
2022-09-28T22:31:30.045Z,12.60
2022-09-28T22:33:57.684Z,12.60
2022-09-28T22:36:25.772Z,12.60
2022-09-28T22:38:54.837Z,12.60
2022-09-28T22:41:21.727Z,12.70
2022-09-28T22:43:51.055Z,12.70
2022-09-28T22:46:25.305Z,12.70
2022-09-28T22:48:58.208Z,12.70
2022-09-28T22:51:27.705Z,12.70
2022-09-28T22:53:54.945Z,12.70
2022-09-28T22:56:21.833Z,12.60
2022-09-28T22:58:48.623Z,12.60
2022-09-28T23:01:21.100Z,12.50
2022-09-28T23:03:50.179Z,12.60
2022-09-28T23:06:19.824Z,12.60
2022-09-28T23:08:48.000Z,12.50
2022-09-28T23:11:15.751Z,12.50
2022-09-28T23:13:43.256Z,12.50
2022-09-28T23:16:15.012Z,12.50
2022-09-28T23:18:42.336Z,12.40
2022-09-28T23:21:17.664Z,12.40
2022-09-28T23:23:46.562Z,12.40
2022-09-28T23:26:21.584Z,12.40
2022-09-28T23:28:48.596Z,12.40
2022-09-28T23:31:28.437Z,12.30
2022-09-28T23:34:13.432Z,12.30
2022-09-28T23:36:40.905Z,12.20
2022-09-28T23:39:09.729Z,12.20
2022-09-28T23:41:37.156Z,12.20
2022-09-28T23:44:04.083Z,12.20
2022-09-28T23:46:30.948Z,12.10
2022-09-28T23:48:58.090Z,12.10
2022-09-28T23:51:25.022Z,12.00
2022-09-28T23:53:51.895Z,12.00
2022-09-28T23:56:19.011Z,12.00
2022-09-28T23:58:45.990Z,11.90
